createdAt,value
2023-02-28T00:00:11.107Z,100.00
2023-02-28T00:02:39.092Z,100.00
2023-02-28T00:05:09.613Z,100.00
2023-02-28T00:07:37.963Z,100.00
2023-02-28T00:10:09.463Z,100.00
2023-02-28T00:12:38.184Z,100.00
2023-02-28T00:15:08.712Z,100.00
2023-02-28T00:17:36.630Z,100.00
2023-02-28T00:20:09.183Z,100.00
2023-02-28T00:22:37.010Z,100.00
2023-02-28T00:25:10.499Z,100.00
2023-02-28T00:27:41.883Z,100.00
2023-02-28T00:30:12.530Z,100.00
2023-02-28T00:32:40.697Z,100.00
2023-02-28T00:35:09.589Z,100.00
2023-02-28T00:37:37.808Z,100.00
2023-02-28T00:40:07.263Z,100.00
2023-02-28T00:42:35.500Z,100.00
2023-02-28T00:45:06.096Z,100.00
2023-02-28T00:47:34.693Z,100.00
2023-02-28T00:50:07.254Z,100.00
2023-02-28T00:52:34.982Z,100.00
2023-02-28T00:55:02.684Z,100.00
2023-02-28T00:57:30.448Z,100.00
2023-02-28T00:59:59.907Z,100.00
2023-02-28T01:02:29.204Z,100.00
2023-02-28T01:04:57.783Z,100.00
2023-02-28T01:07:25.730Z,100.00
2023-02-28T01:09:53.478Z,100.00
2023-02-28T01:12:21.287Z,100.00
2023-02-28T01:14:49.026Z,100.00
2023-02-28T01:17:16.923Z,100.00
2023-02-28T01:19:46.052Z,100.00
2023-02-28T01:22:13.886Z,100.00
2023-02-28T01:24:41.635Z,100.00
2023-02-28T01:27:09.698Z,100.00
2023-02-28T01:29:37.424Z,100.00
2023-02-28T01:32:05.525Z,100.00
2023-02-28T01:34:33.241Z,100.00
2023-02-28T01:37:04.496Z,100.00
2023-02-28T01:39:32.364Z,100.00
2023-02-28T01:42:00.151Z,100.00
2023-02-28T01:44:57.666Z,100.00
2023-02-28T01:47:27.798Z,100.00
2023-02-28T01:49:56.076Z,100.00
2023-02-28T01:52:25.992Z,100.00
2023-02-28T01:54:57.881Z,100.00
2023-02-28T01:57:32.201Z,100.00
2023-02-28T02:00:03.111Z,100.00
2023-02-28T02:02:31.440Z,100.00
2023-02-28T02:05:03.045Z,100.00
2023-02-28T02:07:36.049Z,100.00
2023-02-28T02:10:07.418Z,100.00
2023-02-28T02:13:01.153Z,100.00
2023-02-28T02:15:34.174Z,100.00
2023-02-28T02:18:07.283Z,100.00
2023-02-28T02:20:53.372Z,100.00
2023-02-28T02:23:44.812Z,100.00
2023-02-28T02:26:53.126Z,100.00
2023-02-28T02:29:55.842Z,100.00
2023-02-28T02:32:51.536Z,100.00
2023-02-28T02:35:27.458Z,100.00
2023-02-28T02:38:01.237Z,100.00
2023-02-28T02:40:39.385Z,100.00
2023-02-28T02:43:13.426Z,100.00
2023-02-28T02:45:47.974Z,100.00
2023-02-28T02:48:21.399Z,100.00
2023-02-28T02:50:56.243Z,100.00
2023-02-28T02:53:27.204Z,100.00
2023-02-28T02:55:57.068Z,100.00
2023-02-28T02:58:31.917Z,100.00
2023-02-28T03:01:02.886Z,100.00
2023-02-28T03:03:33.704Z,100.00
2023-02-28T03:06:04.108Z,100.00
2023-02-28T03:08:38.054Z,100.00
2023-02-28T03:11:08.354Z,100.00
2023-02-28T03:13:49.841Z,100.00
2023-02-28T03:16:37.331Z,100.00
2023-02-28T03:19:24.095Z,100.00
2023-02-28T03:22:06.755Z,100.00
2023-02-28T03:24:42.174Z,100.00
2023-02-28T03:27:14.129Z,100.00
2023-02-28T03:29:47.892Z,100.00
2023-02-28T03:32:24.228Z,100.00
2023-02-28T03:35:04.711Z,100.00
2023-02-28T03:37:37.384Z,100.00
2023-02-28T03:40:10.042Z,100.00
2023-02-28T03:42:41.410Z,100.00
2023-02-28T03:45:18.957Z,100.00
2023-02-28T03:47:52.707Z,100.00
2023-02-28T03:50:24.609Z,100.00
2023-02-28T03:53:02.214Z,100.00
2023-02-28T03:55:34.275Z,100.00
2023-02-28T03:58:07.642Z,100.00
2023-02-28T04:00:38.066Z,100.00
2023-02-28T04:03:06.257Z,100.00
2023-02-28T04:05:34.413Z,100.00
2023-02-28T04:08:08.138Z,100.00
2023-02-28T04:10:36.275Z,100.00
2023-02-28T04:13:04.010Z,100.00
2023-02-28T04:15:35.256Z,100.00
2023-02-28T04:18:03.600Z,100.00
2023-02-28T04:20:31.289Z,100.00
2023-02-28T04:22:59.004Z,100.00
2023-02-28T04:25:28.123Z,100.00
2023-02-28T04:27:55.853Z,100.00
2023-02-28T04:30:25.711Z,100.00
2023-02-28T04:32:53.446Z,100.00
2023-02-28T04:35:21.245Z,100.00
2023-02-28T04:37:48.960Z,100.00
2023-02-28T04:40:18.719Z,100.00
2023-02-28T04:42:47.768Z,100.00
2023-02-28T04:45:15.570Z,100.00
2023-02-28T04:47:43.744Z,100.00
2023-02-28T04:50:12.110Z,100.00
2023-02-28T04:52:42.592Z,100.00
2023-02-28T04:55:11.313Z,100.00
2023-02-28T04:57:39.132Z,100.00
2023-02-28T05:00:12.521Z,100.00
2023-02-28T05:02:41.062Z,100.00
2023-02-28T05:05:09.051Z,100.00
2023-02-28T05:07:36.823Z,100.00
2023-02-28T05:10:06.437Z,100.00
2023-02-28T05:12:34.295Z,100.00
2023-02-28T05:15:03.299Z,100.00
2023-02-28T05:17:32.536Z,100.00
2023-02-28T05:20:13.408Z,100.00
2023-02-28T05:22:42.838Z,100.00
2023-02-28T05:25:15.988Z,100.00
2023-02-28T05:27:44.109Z,100.00
2023-02-28T05:30:12.907Z,100.00
2023-02-28T05:32:43.788Z,100.00
2023-02-28T05:35:19.326Z,100.00
2023-02-28T05:37:49.037Z,100.00
2023-02-28T05:40:21.288Z,100.00
2023-02-28T05:42:49.293Z,100.00
2023-02-28T05:45:18.038Z,100.00
2023-02-28T05:47:47.104Z,100.00
2023-02-28T05:50:14.945Z,100.00
2023-02-28T05:52:42.695Z,100.00
2023-02-28T05:55:11.144Z,100.00
2023-02-28T05:57:38.852Z,100.00
2023-02-28T06:00:07.943Z,100.00
2023-02-28T06:02:35.674Z,100.00
2023-02-28T06:05:04.799Z,100.00
2023-02-28T06:07:32.626Z,100.00
2023-02-28T06:10:00.296Z,100.00
2023-02-28T06:12:28.027Z,100.00
2023-02-28T06:14:55.892Z,100.00
2023-02-28T06:17:23.564Z,100.00
2023-02-28T06:19:51.819Z,100.00
2023-02-28T06:22:21.000Z,100.00
2023-02-28T06:24:48.891Z,100.00
2023-02-28T06:27:16.625Z,100.00
2023-02-28T06:29:44.306Z,100.00
2023-02-28T06:32:11.986Z,100.00
2023-02-28T06:34:39.671Z,100.00
2023-02-28T06:37:07.392Z,100.00
2023-02-28T06:39:36.505Z,100.00
2023-02-28T06:42:04.445Z,100.00
2023-02-28T06:44:36.300Z,100.00
2023-02-28T06:47:05.231Z,100.00
2023-02-28T06:49:33.264Z,100.00
2023-02-28T06:52:01.038Z,100.00
2023-02-28T06:54:29.215Z,100.00
2023-02-28T06:56:59.705Z,100.00
2023-02-28T06:59:27.649Z,100.00
2023-02-28T07:01:58.476Z,100.00
2023-02-28T07:04:27.108Z,100.00
2023-02-28T07:06:57.755Z,100.00
2023-02-28T07:09:31.066Z,100.00
2023-02-28T07:12:01.537Z,100.00
2023-02-28T07:14:29.434Z,100.00
2023-02-28T07:16:57.147Z,100.00
2023-02-28T07:19:24.813Z,100.00
2023-02-28T07:21:52.518Z,100.00
2023-02-28T07:24:22.213Z,100.00
2023-02-28T07:26:49.916Z,100.00
2023-02-28T07:29:19.029Z,100.00
2023-02-28T07:31:47.606Z,100.00
2023-02-28T07:34:15.796Z,100.00
2023-02-28T07:36:43.552Z,100.00
2023-02-28T07:39:11.506Z,100.00
2023-02-28T07:41:44.163Z,100.00
2023-02-28T07:44:13.903Z,100.00
2023-02-28T07:46:43.042Z,100.00
2023-02-28T07:49:12.543Z,100.00
2023-02-28T07:51:40.381Z,100.00
2023-02-28T07:54:08.737Z,100.00
2023-02-28T07:56:36.459Z,100.00
2023-02-28T07:59:04.281Z,100.00
2023-02-28T08:01:32.455Z,100.00
2023-02-28T08:04:02.166Z,100.00
2023-02-28T08:06:29.882Z,100.00
2023-02-28T08:08:57.966Z,100.00
2023-02-28T08:11:26.873Z,100.00
2023-02-28T08:13:54.593Z,100.00
2023-02-28T08:16:23.532Z,100.00
2023-02-28T08:18:51.954Z,100.00
2023-02-28T08:21:21.908Z,100.00
2023-02-28T08:23:50.496Z,100.00
2023-02-28T08:26:19.137Z,100.00
2023-02-28T08:28:47.890Z,100.00
2023-02-28T08:31:18.222Z,100.00
2023-02-28T08:33:46.710Z,100.00
2023-02-28T08:36:14.913Z,100.00
2023-02-28T08:38:44.341Z,100.00
2023-02-28T08:41:14.146Z,100.00
2023-02-28T08:43:42.700Z,100.00
2023-02-28T08:46:13.106Z,100.00
2023-02-28T08:48:41.066Z,100.00
2023-02-28T08:51:11.178Z,100.00
2023-02-28T08:53:40.269Z,100.00
2023-02-28T08:56:14.251Z,100.00
2023-02-28T08:58:42.787Z,100.00
2023-02-28T09:01:13.013Z,100.00
2023-02-28T09:03:42.449Z,100.00
2023-02-28T09:06:13.856Z,100.00
2023-02-28T09:08:41.662Z,100.00
2023-02-28T09:11:11.424Z,100.00
2023-02-28T09:13:40.616Z,100.00
2023-02-28T09:16:10.708Z,100.00
2023-02-28T09:18:39.268Z,100.00
2023-02-28T09:21:08.239Z,100.00
2023-02-28T09:23:38.978Z,100.00
2023-02-28T09:26:07.250Z,100.00
2023-02-28T09:28:39.281Z,100.00
2023-02-28T09:31:07.096Z,100.00
2023-02-28T09:33:37.730Z,100.00
2023-02-28T09:36:06.262Z,100.00
2023-02-28T09:38:34.004Z,100.00
2023-02-28T09:41:04.625Z,100.00
2023-02-28T09:43:37.692Z,100.00
2023-02-28T09:46:14.576Z,100.00
2023-02-28T09:48:47.809Z,100.00
2023-02-28T09:51:31.940Z,100.00
2023-02-28T09:54:01.957Z,100.00
2023-02-28T09:56:35.089Z,100.00
2023-02-28T09:59:07.808Z,100.00
2023-02-28T10:01:44.701Z,100.00
2023-02-28T10:04:18.876Z,100.00
2023-02-28T10:06:50.695Z,100.00
2023-02-28T10:09:21.702Z,100.00
2023-02-28T10:11:54.409Z,100.00
2023-02-28T10:14:26.476Z,100.00
2023-02-28T10:16:58.583Z,100.00
2023-02-28T10:19:33.498Z,100.00
2023-02-28T10:22:04.530Z,100.00
2023-02-28T10:24:36.346Z,100.00
2023-02-28T10:27:19.553Z,100.00
2023-02-28T10:29:50.134Z,100.00
2023-02-28T10:32:21.033Z,100.00
2023-02-28T10:34:54.560Z,100.00
2023-02-28T10:37:22.860Z,100.00
2023-02-28T10:39:50.647Z,100.00
2023-02-28T10:42:27.587Z,100.00
2023-02-28T10:45:12.557Z,100.00
2023-02-28T10:47:53.889Z,100.00
2023-02-28T10:50:36.895Z,100.00
2023-02-28T10:53:30.449Z,100.00
2023-02-28T10:56:00.136Z,100.00
2023-02-28T10:58:31.539Z,100.00
2023-02-28T11:01:00.467Z,100.00
2023-02-28T11:03:38.606Z,100.00
2023-02-28T11:06:09.883Z,100.00
2023-02-28T11:08:47.649Z,100.00
2023-02-28T11:11:16.626Z,100.00
2023-02-28T11:13:46.740Z,100.00
2023-02-28T11:16:16.327Z,100.00
2023-02-28T11:18:50.106Z,100.00
2023-02-28T11:21:23.037Z,100.00
2023-02-28T11:23:52.379Z,100.00
2023-02-28T11:26:42.175Z,100.00
2023-02-28T11:29:23.274Z,96.88
2023-02-28T11:32:14.764Z,99.68
2023-02-28T11:34:45.067Z,94.31
2023-02-28T11:37:16.641Z,94.10
2023-02-28T11:39:44.977Z,92.88
2023-02-28T11:42:45.871Z,96.44
2023-02-28T11:45:30.325Z,99.37
2023-02-28T11:48:06.631Z,100.00
2023-02-28T11:51:05.149Z,100.00
2023-02-28T11:56:08.587Z,100.00
2023-02-28T11:58:48.482Z,100.00
2023-02-28T12:01:39.277Z,100.00
2023-02-28T12:04:19.970Z,100.00
2023-02-28T12:06:54.317Z,100.00
2023-02-28T12:09:35.944Z,100.00
2023-02-28T12:12:15.680Z,100.00
2023-02-28T12:14:57.386Z,100.00
2023-02-28T12:17:37.426Z,100.00
2023-02-28T12:20:18.566Z,100.00
2023-02-28T12:22:57.334Z,100.00
2023-02-28T12:25:52.300Z,100.00
2023-02-28T12:28:28.196Z,100.00
2023-02-28T12:31:03.479Z,96.68
2023-02-28T12:33:37.977Z,94.99
2023-02-28T12:36:12.908Z,99.27
2023-02-28T12:38:45.805Z,100.00
2023-02-28T12:41:17.393Z,100.00
2023-02-28T12:43:50.259Z,100.00
2023-02-28T12:46:23.612Z,100.00
2023-02-28T12:48:56.525Z,95.49
2023-02-28T12:51:27.966Z,87.94
2023-02-28T12:54:08.948Z,91.99
2023-02-28T12:56:44.229Z,88.07
2023-02-28T12:59:16.942Z,90.91
2023-02-28T13:02:01.876Z,87.58
2023-02-28T13:04:58.760Z,89.77
2023-02-28T13:07:55.856Z,87.64
2023-02-28T13:10:26.171Z,97.78
2023-02-28T13:12:55.990Z,100.00
2023-02-28T13:15:29.288Z,100.00
2023-02-28T13:18:00.124Z,100.00
2023-02-28T13:20:36.909Z,100.00
2023-02-28T13:23:06.389Z,100.00
2023-02-28T13:25:56.612Z,100.00
2023-02-28T13:28:59.909Z,100.00
2023-02-28T13:31:29.083Z,100.00
2023-02-28T13:34:17.688Z,100.00
2023-02-28T13:36:45.497Z,100.00
2023-02-28T13:39:49.839Z,100.00
2023-02-28T13:42:38.334Z,100.00
2023-02-28T13:45:25.577Z,100.00
2023-02-28T13:48:02.440Z,100.00
2023-02-28T13:50:34.123Z,100.00
2023-02-28T13:53:39.535Z,100.00
2023-02-28T13:56:20.043Z,100.00
2023-02-28T13:58:56.745Z,100.00
2023-02-28T14:01:36.832Z,100.00
2023-02-28T14:04:37.495Z,100.00
2023-02-28T14:07:06.416Z,100.00
2023-02-28T14:09:37.745Z,100.00
2023-02-28T14:12:42.724Z,100.00
2023-02-28T14:15:33.009Z,100.00
2023-02-28T14:18:03.530Z,100.00
2023-02-28T14:20:35.506Z,100.00
2023-02-28T14:23:14.521Z,100.00
2023-02-28T14:25:51.142Z,97.41
2023-02-28T14:28:33.749Z,100.00
2023-02-28T14:31:10.661Z,100.00
2023-02-28T14:33:57.081Z,100.00
2023-02-28T14:36:29.738Z,100.00
2023-02-28T14:39:00.030Z,100.00
2023-02-28T14:41:32.646Z,100.00
2023-02-28T14:44:02.359Z,100.00
2023-02-28T14:46:39.003Z,100.00
2023-02-28T14:49:08.346Z,100.00
2023-02-28T14:51:36.914Z,100.00
2023-02-28T14:54:05.775Z,100.00
2023-02-28T14:56:37.815Z,100.00
2023-02-28T14:59:08.190Z,100.00
2023-02-28T15:01:37.394Z,100.00
2023-02-28T15:04:07.711Z,100.00
2023-02-28T15:06:35.657Z,100.00
2023-02-28T15:09:15.990Z,100.00
2023-02-28T15:11:47.339Z,100.00
2023-02-28T15:14:22.033Z,100.00
2023-02-28T15:16:58.455Z,100.00
2023-02-28T15:19:30.476Z,100.00
2023-02-28T15:22:02.110Z,100.00
2023-02-28T15:24:38.725Z,100.00
2023-02-28T15:27:08.966Z,100.00
2023-02-28T15:29:47.238Z,100.00
2023-02-28T15:32:27.979Z,100.00
2023-02-28T15:34:56.201Z,100.00
2023-02-28T15:37:41.276Z,100.00
2023-02-28T15:40:18.643Z,100.00
2023-02-28T15:43:00.737Z,100.00
2023-02-28T15:45:30.648Z,100.00
2023-02-28T15:48:12.297Z,100.00
2023-02-28T15:50:41.702Z,100.00
2023-02-28T15:53:15.732Z,100.00
2023-02-28T15:55:43.657Z,100.00
2023-02-28T15:58:14.469Z,100.00
2023-02-28T16:00:50.430Z,100.00
2023-02-28T16:03:39.472Z,100.00
2023-02-28T16:06:29.596Z,100.00
2023-02-28T16:08:57.349Z,100.00
2023-02-28T16:11:25.356Z,100.00
2023-02-28T16:13:54.461Z,100.00
2023-02-28T16:16:25.164Z,100.00
2023-02-28T16:18:54.664Z,100.00
2023-02-28T16:21:22.585Z,100.00
2023-02-28T16:23:50.424Z,100.00
2023-02-28T16:26:25.092Z,100.00
2023-02-28T16:28:53.937Z,100.00
2023-02-28T16:31:22.443Z,100.00
2023-02-28T16:33:50.159Z,100.00
2023-02-28T16:36:23.200Z,100.00
2023-02-28T16:38:51.433Z,100.00
2023-02-28T16:41:21.095Z,100.00
2023-02-28T16:43:50.883Z,100.00
2023-02-28T16:46:19.675Z,100.00
2023-02-28T16:48:49.594Z,100.00
2023-02-28T16:51:19.614Z,100.00
2023-02-28T16:53:47.801Z,100.00
2023-02-28T16:56:19.288Z,100.00
2023-02-28T16:58:50.708Z,100.00
2023-02-28T17:01:22.752Z,100.00
2023-02-28T17:03:51.155Z,100.00
2023-02-28T17:06:23.045Z,100.00
2023-02-28T17:08:51.229Z,100.00
2023-02-28T17:11:19.625Z,100.00
2023-02-28T17:13:47.757Z,100.00
2023-02-28T17:16:22.667Z,100.00
2023-02-28T17:18:51.928Z,100.00
2023-02-28T17:21:21.108Z,100.00
2023-02-28T17:23:48.980Z,100.00
2023-02-28T17:26:20.895Z,100.00
2023-02-28T17:28:48.787Z,100.00
2023-02-28T17:31:17.022Z,100.00
2023-02-28T17:33:44.916Z,100.00
2023-02-28T17:36:16.331Z,100.00
2023-02-28T17:38:45.812Z,100.00
2023-02-28T17:41:13.730Z,100.00
2023-02-28T17:43:41.904Z,100.00
2023-02-28T17:46:19.306Z,100.00
2023-02-28T17:48:47.086Z,100.00
2023-02-28T17:51:16.082Z,100.00
2023-02-28T17:53:45.363Z,100.00
2023-02-28T17:56:15.745Z,100.00
2023-02-28T17:58:43.812Z,100.00
2023-02-28T18:01:12.977Z,100.00
2023-02-28T18:03:41.400Z,100.00
2023-02-28T18:06:14.049Z,100.00
2023-02-28T18:08:42.401Z,100.00
2023-02-28T18:11:18.047Z,100.00
2023-02-28T18:13:47.710Z,100.00
2023-02-28T18:16:19.208Z,100.00
2023-02-28T18:18:47.387Z,100.00
2023-02-28T18:21:17.130Z,100.00
2023-02-28T18:23:48.689Z,100.00
2023-02-28T18:26:19.899Z,100.00
2023-02-28T18:28:48.898Z,100.00
2023-02-28T18:31:18.791Z,100.00
2023-02-28T18:33:50.274Z,100.00
2023-02-28T18:36:18.891Z,100.00
2023-02-28T18:38:46.948Z,100.00
2023-02-28T18:41:14.885Z,100.00
2023-02-28T18:43:44.381Z,100.00
2023-02-28T18:46:14.936Z,100.00
2023-02-28T18:48:42.741Z,100.00
2023-02-28T18:51:11.780Z,100.00
2023-02-28T18:53:41.463Z,100.00
2023-02-28T18:56:13.009Z,100.00
2023-02-28T18:58:41.902Z,100.00
2023-02-28T19:01:18.509Z,100.00
2023-02-28T19:03:46.896Z,100.00
2023-02-28T19:06:15.115Z,100.00
2023-02-28T19:08:42.910Z,100.00
2023-02-28T19:11:11.520Z,100.00
2023-02-28T19:13:39.467Z,100.00
2023-02-28T19:16:10.040Z,100.00
2023-02-28T19:18:39.454Z,100.00
2023-02-28T19:21:08.301Z,100.00
2023-02-28T19:23:36.098Z,100.00
2023-02-28T19:26:11.125Z,100.00
2023-02-28T19:28:39.695Z,100.00
2023-02-28T19:31:13.477Z,100.00
2023-02-28T19:33:43.155Z,100.00
2023-02-28T19:36:12.641Z,100.00
2023-02-28T19:38:40.994Z,100.00
2023-02-28T19:41:11.324Z,100.00
2023-02-28T19:43:39.680Z,100.00
2023-02-28T19:46:09.488Z,100.00
2023-02-28T19:48:40.048Z,100.00
2023-02-28T19:51:12.058Z,100.00
2023-02-28T19:53:41.614Z,100.00
2023-02-28T19:56:10.549Z,100.00
2023-02-28T19:58:39.238Z,100.00
2023-02-28T20:01:11.976Z,100.00
2023-02-28T20:03:39.942Z,100.00
2023-02-28T20:06:11.548Z,100.00
2023-02-28T20:08:40.834Z,100.00
2023-02-28T20:11:10.843Z,100.00
2023-02-28T20:13:38.960Z,100.00
2023-02-28T20:16:09.586Z,100.00
2023-02-28T20:18:38.605Z,100.00
2023-02-28T20:21:08.726Z,100.00
2023-02-28T20:23:38.852Z,100.00
2023-02-28T20:26:07.601Z,100.00
2023-02-28T20:28:35.435Z,100.00
2023-02-28T20:31:03.609Z,100.00
2023-02-28T20:33:31.509Z,100.00
2023-02-28T20:36:00.887Z,100.00
2023-02-28T20:38:30.917Z,100.00
2023-02-28T20:41:02.232Z,100.00
2023-02-28T20:43:31.140Z,100.00
2023-02-28T20:46:01.856Z,100.00
2023-02-28T20:48:30.835Z,100.00
2023-02-28T20:51:00.445Z,100.00
2023-02-28T20:53:29.316Z,100.00
2023-02-28T20:55:58.196Z,100.00
2023-02-28T20:58:29.922Z,100.00
2023-02-28T21:01:01.977Z,100.00
2023-02-28T21:03:30.213Z,100.00
2023-02-28T21:06:02.656Z,100.00
2023-02-28T21:08:31.553Z,100.00
2023-02-28T21:10:59.879Z,100.00
2023-02-28T21:13:29.472Z,100.00
2023-02-28T21:15:58.245Z,100.00
2023-02-28T21:18:26.684Z,100.00
2023-02-28T21:20:55.177Z,100.00
2023-02-28T21:23:23.473Z,100.00
2023-02-28T21:25:52.021Z,100.00
2023-02-28T21:28:20.309Z,100.00
2023-02-28T21:30:50.325Z,100.00
2023-02-28T21:33:19.327Z,100.00
2023-02-28T21:35:47.564Z,100.00
2023-02-28T21:38:15.315Z,100.00
2023-02-28T21:40:43.165Z,100.00
2023-02-28T21:43:10.945Z,100.00
2023-02-28T21:45:38.786Z,100.00
2023-02-28T21:48:07.991Z,100.00
2023-02-28T21:50:38.314Z,100.00
2023-02-28T21:53:06.080Z,100.00
2023-02-28T21:55:35.548Z,100.00
2023-02-28T21:58:03.852Z,100.00
2023-02-28T22:00:31.753Z,100.00
2023-02-28T22:03:03.555Z,100.00
2023-02-28T22:05:32.721Z,100.00
2023-02-28T22:08:00.548Z,100.00
2023-02-28T22:10:28.333Z,100.00
2023-02-28T22:12:56.127Z,100.00
2023-02-28T22:15:24.236Z,100.00
2023-02-28T22:17:52.303Z,100.00
2023-02-28T22:20:21.872Z,100.00
2023-02-28T22:22:51.074Z,100.00
2023-02-28T22:25:19.031Z,100.00
2023-02-28T22:27:46.806Z,100.00
2023-02-28T22:30:15.644Z,100.00
2023-02-28T22:32:43.376Z,100.00
2023-02-28T22:35:11.516Z,100.00
2023-02-28T22:37:39.363Z,100.00
2023-02-28T22:40:11.187Z,100.00
2023-02-28T22:42:38.886Z,100.00
2023-02-28T22:45:07.360Z,100.00
2023-02-28T22:47:35.179Z,100.00
2023-02-28T22:50:02.912Z,100.00
2023-02-28T22:52:30.623Z,100.00
2023-02-28T23:00:38.548Z,100.00
2023-02-28T23:03:06.299Z,100.00
2023-02-28T23:05:34.046Z,100.00
2023-02-28T23:08:01.804Z,100.00
2023-02-28T23:10:29.544Z,100.00
2023-02-28T23:12:57.276Z,100.00
2023-02-28T23:15:25.063Z,100.00
2023-02-28T23:17:54.345Z,100.00
2023-02-28T23:20:22.898Z,100.00
2023-02-28T23:22:51.459Z,100.00
2023-02-28T23:25:20.547Z,100.00
2023-02-28T23:27:49.214Z,100.00
2023-02-28T23:30:17.617Z,100.00
2023-02-28T23:32:45.469Z,100.00
2023-02-28T23:35:14.731Z,100.00
2023-02-28T23:37:42.425Z,100.00
2023-02-28T23:40:12.946Z,100.00
2023-02-28T23:42:40.993Z,100.00
2023-02-28T23:45:10.201Z,100.00
2023-02-28T23:47:37.930Z,100.00
2023-02-28T23:50:06.534Z,100.00
2023-02-28T23:52:35.702Z,100.00
2023-02-28T23:55:03.614Z,100.00
2023-02-28T23:57:31.376Z,100.00
2023-02-28T23:59:59.145Z,100.00
